createdAt,value
2018-09-04T00:00:28.543Z,55.5
2018-09-04T00:01:19.186Z,55.5
2018-09-04T00:02:09.231Z,55.5
2018-09-04T00:02:58.793Z,55.5
2018-09-04T00:03:48.875Z,55.4
2018-09-04T00:04:39.690Z,55.5
2018-09-04T00:05:29.513Z,55.4
2018-09-04T00:06:19.605Z,55.4
2018-09-04T00:07:09.368Z,55.4
2018-09-04T00:07:59.402Z,55.4
2018-09-04T00:08:50.003Z,55.4
2018-09-04T00:09:39.872Z,55.4
2018-09-04T00:10:29.968Z,55.4
2018-09-04T00:11:19.953Z,55.4
2018-09-04T00:12:10.036Z,55.4
2018-09-04T00:31:41.192Z,55.3
2018-09-04T00:32:31.914Z,55.3
2018-09-04T00:33:21.346Z,55.3
2018-09-04T00:34:11.969Z,55.3
2018-09-04T00:35:01.786Z,55.3
2018-09-04T00:35:52.091Z,55.3
2018-09-04T00:36:41.930Z,55.3
2018-09-04T00:37:31.679Z,55.3
2018-09-04T00:38:22.000Z,55.3
2018-09-04T00:39:12.363Z,55.3
2018-09-04T00:40:02.150Z,55.3
2018-09-04T00:40:52.206Z,55.3
2018-09-04T00:41:43.078Z,55.2
2018-09-04T00:42:32.657Z,55.3
2018-09-04T00:43:22.657Z,55.2
2018-09-04T00:44:11.537Z,55.2
2018-09-04T00:45:02.536Z,55.2
2018-09-04T00:45:52.580Z,55.2
2018-09-04T00:46:42.684Z,55.2
2018-09-04T00:47:33.010Z,55.1
2018-09-04T00:48:22.755Z,55.2
2018-09-04T00:49:12.575Z,55.2
2018-09-04T00:50:02.643Z,55.1
2018-09-04T00:50:52.674Z,55.1
2018-09-04T00:51:42.981Z,55.1
2018-09-04T00:52:32.325Z,55.1
2018-09-04T00:53:22.603Z,55.1
2018-09-04T00:54:12.937Z,55.1
2018-09-04T00:55:02.807Z,55.1
2018-09-04T00:55:52.849Z,55.1
2018-09-04T00:56:42.700Z,55.1
2018-09-04T00:57:33.447Z,55.1
2018-09-04T00:58:23.588Z,55.1
2018-09-04T00:59:13.067Z,55.1
2018-09-04T01:00:03.795Z,55.1
2018-09-04T01:00:53.739Z,55.1
2018-09-04T01:01:43.812Z,55.1
2018-09-04T01:02:33.879Z,55.1
2018-09-04T01:03:23.933Z,55.1
2018-09-04T01:04:13.710Z,55.1
2018-09-04T01:05:04.629Z,55.1
2018-09-04T01:05:54.421Z,55.1
2018-09-04T01:06:44.194Z,55.1
2018-09-04T01:07:34.741Z,55
2018-09-04T01:08:23.752Z,55.1
2018-09-04T01:09:14.097Z,55
2018-09-04T01:10:04.991Z,55
2018-09-04T01:10:54.222Z,55
2018-09-04T01:11:44.599Z,55
2018-09-04T01:12:34.331Z,55
2018-09-04T01:13:24.442Z,55
2018-09-04T01:14:15.078Z,54.9
2018-09-04T01:15:04.844Z,55
2018-09-04T01:15:54.329Z,55
2018-09-04T01:16:44.676Z,54.9
2018-09-04T01:17:35.279Z,54.9
2018-09-04T01:18:25.661Z,54.9
2018-09-04T01:19:15.159Z,54.9
2018-09-04T01:20:05.236Z,54.9
2018-09-04T01:20:55.273Z,54.9
2018-09-04T01:21:45.658Z,54.9
2018-09-04T01:22:35.740Z,54.9
2018-09-04T01:23:25.211Z,54.9
2018-09-04T01:24:15.545Z,54.9
2018-09-04T01:25:05.909Z,54.9
2018-09-04T01:25:55.096Z,54.9
2018-09-04T01:26:45.446Z,54.9
2018-09-04T01:27:36.058Z,54.9
2018-09-04T01:28:26.210Z,54.9
2018-09-04T01:29:16.235Z,54.9
2018-09-04T01:30:06.313Z,54.9
2018-09-04T01:30:55.792Z,54.9
2018-09-04T01:31:46.163Z,54.9
2018-09-04T01:32:36.275Z,54.9
2018-09-04T01:33:26.575Z,54.9
2018-09-04T01:34:16.330Z,54.9
2018-09-04T01:35:06.672Z,54.8
2018-09-04T01:35:56.450Z,54.8
2018-09-04T01:36:46.235Z,54.8
2018-09-04T01:37:36.594Z,54.8
2018-09-04T01:38:26.352Z,54.8
2018-09-04T01:39:17.225Z,54.8
2018-09-04T01:40:07.091Z,54.8
2018-09-04T01:40:56.582Z,54.8
2018-09-04T01:41:46.624Z,54.8
2018-09-04T01:42:36.985Z,54.8
2018-09-04T01:43:26.727Z,54.8
2018-09-04T01:44:16.867Z,54.8
2018-09-04T01:45:06.873Z,54.8
2018-09-04T01:45:57.214Z,54.8
2018-09-04T01:46:47.564Z,54.8
2018-09-04T01:47:37.052Z,54.8
2018-09-04T01:48:27.687Z,54.8
2018-09-04T01:49:17.173Z,54.8
2018-09-04T01:50:07.852Z,54.8
2018-09-04T01:50:58.145Z,54.8
2018-09-04T01:51:47.679Z,54.7
2018-09-04T01:52:38.031Z,54.7
2018-09-04T01:53:28.074Z,54.7
2018-09-04T01:54:18.106Z,54.7
2018-09-04T01:55:07.654Z,54.7
2018-09-04T01:55:57.701Z,54.7
2018-09-04T01:56:48.061Z,54.7
2018-09-04T01:57:37.268Z,54.7
2018-09-04T01:58:28.750Z,54.7
2018-09-04T01:59:17.968Z,54.7
2018-09-04T02:00:07.472Z,54.7
2018-09-04T02:00:58.358Z,54.6
2018-09-04T02:01:48.156Z,54.7
2018-09-04T02:02:38.516Z,54.7
2018-09-04T02:03:28.358Z,54.6
2018-09-04T02:04:18.055Z,54.6
2018-09-04T02:05:09.003Z,54.6
2018-09-04T02:05:59.060Z,54.6
2018-09-04T02:06:48.831Z,54.6
2018-09-04T02:07:38.907Z,54.6
2018-09-04T02:08:28.623Z,54.6
2018-09-04T02:09:18.765Z,54.6
2018-09-04T02:10:09.108Z,54.6
2018-09-04T02:10:59.455Z,54.6
2018-09-04T02:11:49.480Z,54.6
2018-09-04T02:12:38.979Z,54.6
2018-09-04T02:13:29.602Z,54.6
2018-09-04T02:14:19.427Z,54.6
2018-09-04T02:15:09.455Z,54.6
2018-09-04T02:15:59.847Z,54.6
2018-09-04T02:16:50.158Z,54.6
2018-09-04T02:17:39.669Z,54.6
2018-09-04T02:18:29.443Z,54.6
2018-09-04T02:19:19.800Z,54.5
2018-09-04T02:20:09.842Z,54.5
2018-09-04T02:20:59.980Z,54.5
2018-09-04T02:21:49.697Z,54.5
2018-09-04T02:22:39.494Z,54.5
2018-09-04T02:23:30.107Z,54.5
2018-09-04T02:24:20.189Z,54.5
2018-09-04T02:25:10.294Z,54.5
2018-09-04T02:26:00.639Z,54.5
2018-09-04T02:26:50.079Z,54.5
2018-09-04T02:27:40.458Z,54.4
2018-09-04T02:28:30.516Z,54.4
2018-09-04T02:29:20.831Z,54.4
2018-09-04T02:30:10.362Z,54.4
2018-09-04T02:31:00.422Z,54.4
2018-09-04T02:31:50.486Z,54.4
2018-09-04T02:32:40.581Z,54.4
2018-09-04T02:33:30.925Z,54.4
2018-09-04T02:34:20.911Z,54.4
2018-09-04T02:35:11.080Z,54.4
2018-09-04T02:36:00.855Z,54.4
2018-09-04T02:36:51.511Z,54.4
2018-09-04T02:37:40.386Z,54.4
2018-09-04T02:38:31.291Z,54.4
2018-09-04T02:39:21.624Z,54.4
2018-09-04T02:40:11.146Z,54.4
2018-09-04T02:41:01.784Z,54.4
2018-09-04T02:41:51.554Z,54.4
2018-09-04T02:42:41.321Z,54.4
2018-09-04T02:43:31.681Z,54.4
2018-09-04T02:44:21.746Z,54.3
2018-09-04T02:45:11.794Z,54.3
2018-09-04T02:46:01.573Z,54.4
2018-09-04T02:46:52.215Z,54.3
2018-09-04T02:47:41.998Z,54.4
2018-09-04T02:48:32.360Z,54.3
2018-09-04T02:49:22.121Z,54.3
2018-09-04T02:50:12.680Z,54.3
2018-09-04T02:51:02.232Z,54.3
2018-09-04T02:51:52.296Z,54.3
2018-09-04T02:52:42.925Z,54.3
2018-09-04T02:53:32.148Z,54.3
2018-09-04T02:54:22.288Z,54.3
2018-09-04T02:55:12.782Z,54.3
2018-09-04T02:56:02.623Z,54.3
2018-09-04T02:56:52.698Z,54.3
2018-09-04T02:57:42.471Z,54.3
2018-09-04T02:58:32.245Z,54.3
2018-09-04T02:59:22.910Z,54.3
2018-09-04T03:00:14.008Z,54.3
2018-09-04T03:01:03.320Z,54.3
2018-09-04T03:01:53.120Z,54.3
2018-09-04T03:02:42.867Z,54.2
2018-09-04T03:03:33.215Z,54.2
2018-09-04T03:04:23.551Z,54.2
2018-09-04T03:05:13.587Z,54.2
2018-09-04T03:06:03.124Z,54.2
2018-09-04T03:06:53.751Z,54.2
2018-09-04T03:07:43.823Z,54.2
2018-09-04T03:08:33.313Z,54.2
2018-09-04T03:09:23.371Z,54.2
2018-09-04T03:10:13.688Z,54.2
2018-09-04T03:11:04.062Z,54.2
2018-09-04T03:11:54.196Z,54.1
2018-09-04T03:12:43.937Z,54.1
2018-09-04T03:13:35.339Z,54.1
2018-09-04T03:14:24.075Z,54.1
2018-09-04T03:15:13.837Z,54.1
2018-09-04T03:16:03.605Z,54.1
2018-09-04T03:16:53.971Z,54.1
2018-09-04T03:17:44.319Z,54.1
2018-09-04T03:18:34.371Z,54.1
2018-09-04T03:19:24.154Z,54.1
2018-09-04T03:20:14.763Z,54.1
2018-09-04T03:21:04.273Z,54.1
2018-09-04T03:21:54.450Z,54.1
2018-09-04T03:22:44.722Z,54.1
2018-09-04T03:23:34.473Z,54.1
2018-09-04T03:24:25.152Z,54.1
2018-09-04T03:25:15.723Z,54.1
2018-09-04T03:26:04.723Z,54.1
2018-09-04T03:26:55.016Z,54.1
2018-09-04T03:27:44.813Z,54.1
2018-09-04T03:28:34.858Z,54.1
2018-09-04T03:29:24.936Z,54.1
2018-09-04T03:30:15.586Z,54
2018-09-04T03:31:05.986Z,54
2018-09-04T03:31:55.739Z,54
2018-09-04T03:32:44.908Z,54
2018-09-04T03:33:34.954Z,54
2018-09-04T03:34:26.161Z,54
2018-09-04T03:35:15.656Z,54
2018-09-04T03:36:05.374Z,54
2018-09-04T03:36:55.777Z,54
2018-09-04T03:37:45.553Z,54
2018-09-04T03:38:36.175Z,53.9
2018-09-04T03:39:25.713Z,53.9
2018-09-04T03:40:16.038Z,54
2018-09-04T03:41:06.036Z,53.9
2018-09-04T03:41:56.182Z,53.9
2018-09-04T03:42:46.280Z,53.9
2018-09-04T03:43:36.594Z,53.9
2018-09-04T03:44:26.270Z,53.9
2018-09-04T03:45:16.444Z,53.9
2018-09-04T03:46:06.278Z,53.9
2018-09-04T03:46:56.796Z,53.9
2018-09-04T03:47:46.347Z,53.9
2018-09-04T03:48:36.986Z,53.9
2018-09-04T03:49:26.693Z,53.9
2018-09-04T03:50:16.798Z,53.9
2018-09-04T03:51:06.337Z,53.9
2018-09-04T03:51:56.947Z,53.9
2018-09-04T03:52:47.286Z,53.9
2018-09-04T03:53:36.769Z,53.9
2018-09-04T03:54:27.138Z,53.9
2018-09-04T03:55:16.916Z,53.8
2018-09-04T03:56:07.829Z,53.8
2018-09-04T03:56:57.581Z,53.8
2018-09-04T03:57:47.419Z,53.8
2018-09-04T03:58:37.476Z,53.8
2018-09-04T03:59:27.828Z,53.8
2018-09-04T04:00:16.981Z,53.8
2018-09-04T04:01:07.452Z,53.8
2018-09-04T04:01:57.471Z,53.8
2018-09-04T04:02:47.201Z,53.8
2018-09-04T04:03:37.283Z,53.8
2018-09-04T04:04:28.236Z,53.8
2018-09-04T04:05:18.245Z,53.8
2018-09-04T04:06:07.696Z,53.8
2018-09-04T04:06:58.361Z,53.8
2018-09-04T04:07:48.180Z,53.8
2018-09-04T04:08:38.218Z,53.8
2018-09-04T04:09:28.293Z,53.8
2018-09-04T04:10:17.791Z,53.8
2018-09-04T04:11:08.450Z,53.7
2018-09-04T04:11:59.537Z,53.8
2018-09-04T04:12:48.549Z,53.8
2018-09-04T04:13:38.332Z,53.8
2018-09-04T04:14:29.007Z,53.7
2018-09-04T04:15:18.441Z,53.7
2018-09-04T04:16:09.077Z,53.7
2018-09-04T04:16:58.521Z,53.7
2018-09-04T04:17:48.919Z,53.7
2018-09-04T04:18:39.267Z,53.7
2018-09-04T04:19:29.350Z,53.7
2018-09-04T04:20:19.680Z,53.7
2018-09-04T04:21:09.184Z,53.6
2018-09-04T04:21:59.532Z,53.6
2018-09-04T04:22:49.608Z,53.6
2018-09-04T04:23:39.394Z,53.6
2018-09-04T04:24:29.737Z,53.6
2018-09-04T04:25:19.224Z,53.6
2018-09-04T04:26:09.904Z,53.6
2018-09-04T04:26:59.874Z,53.6
2018-09-04T04:27:49.710Z,53.6
2018-09-04T04:28:39.761Z,53.6
2018-09-04T04:29:29.232Z,53.6
2018-09-04T04:30:20.177Z,53.6
2018-09-04T04:31:10.194Z,53.6
2018-09-04T04:32:00.074Z,53.6
2018-09-04T04:32:49.419Z,53.6
2018-09-04T04:33:40.446Z,53.6
2018-09-04T04:34:29.935Z,53.6
2018-09-04T04:35:20.535Z,53.6
2018-09-04T04:36:10.616Z,53.6
2018-09-04T04:36:59.835Z,53.5
2018-09-04T04:37:50.755Z,53.5
2018-09-04T04:38:40.571Z,53.5
2018-09-04T04:39:30.614Z,53.5
2018-09-04T04:40:20.388Z,53.5
2018-09-04T04:41:11.020Z,53.5
2018-09-04T04:42:00.541Z,53.5
2018-09-04T04:42:50.276Z,53.5
2018-09-04T05:00:30.560Z,53.3
2018-09-04T05:01:19.095Z,53.3
2018-09-04T05:02:09.752Z,53.4
2018-09-04T05:03:00.054Z,53.3
2018-09-04T05:03:49.614Z,53.3
2018-09-04T05:04:39.949Z,53.3
2018-09-04T05:05:30.353Z,53.3
2018-09-04T05:06:20.367Z,53.3
2018-09-04T05:07:09.851Z,53.3
2018-09-04T05:08:00.192Z,53.3
2018-09-04T05:08:49.941Z,53.3
2018-09-04T05:09:40.327Z,53.3
2018-09-04T05:10:29.797Z,53.3
2018-09-04T05:11:21.418Z,53.3
2018-09-04T05:12:10.504Z,53.3
2018-09-04T05:13:00.299Z,53.3
2018-09-04T05:13:50.059Z,53.3
2018-09-04T05:14:40.714Z,53.3
2018-09-04T05:15:30.492Z,53.3
2018-09-04T05:16:20.578Z,53.2
2018-09-04T05:17:10.036Z,53.3
2018-09-04T05:18:00.693Z,53.3
2018-09-04T05:18:50.516Z,53.2
2018-09-04T05:19:40.618Z,53.2
2018-09-04T05:20:30.869Z,53.2
2018-09-04T05:21:20.923Z,53.2
2018-09-04T05:22:11.087Z,53.2
2018-09-04T05:23:01.362Z,53.2
2018-09-04T05:23:50.886Z,53.2
2018-09-04T05:24:40.903Z,53.2
2018-09-04T05:25:31.521Z,53.2
2018-09-04T05:26:21.588Z,53.1
2018-09-04T05:27:11.156Z,53.2
2018-09-04T05:28:00.348Z,53.1
2018-09-04T05:28:52.312Z,53.1
2018-09-04T05:29:41.877Z,53.1
2018-09-04T05:30:31.652Z,53.1
2018-09-04T05:31:21.487Z,53.1
2018-09-04T05:32:11.265Z,53.1
2018-09-04T05:33:01.048Z,53.1
2018-09-04T05:33:51.907Z,53.1
2018-09-04T05:34:41.947Z,53.1
2018-09-04T05:35:32.019Z,53.1
2018-09-04T05:36:22.620Z,53.1
2018-09-04T05:37:11.567Z,53.1
2018-09-04T05:38:02.211Z,53.1
2018-09-04T05:38:52.824Z,53.1
2018-09-04T05:39:42.035Z,53.1
2018-09-04T05:40:32.119Z,53.1
2018-09-04T05:41:21.899Z,53
2018-09-04T05:42:12.797Z,53.1
2018-09-04T05:43:02.915Z,53.1
2018-09-04T05:43:53.227Z,53
2018-09-04T05:44:42.525Z,53
2018-09-04T05:45:33.155Z,53
2018-09-04T05:46:22.853Z,53
2018-09-04T05:47:12.633Z,53
2018-09-04T05:48:02.695Z,53
2018-09-04T05:48:52.769Z,52.9
2018-09-04T05:49:43.060Z,52.9
2018-09-04T05:50:33.165Z,52.9
2018-09-04T05:51:22.980Z,52.9
2018-09-04T05:52:12.608Z,52.9
2018-09-04T05:53:03.662Z,52.9
2018-09-04T05:53:53.428Z,52.9
2018-09-04T05:54:43.487Z,52.9
2018-09-04T05:55:33.542Z,52.9
2018-09-04T05:56:23.611Z,52.9
2018-09-04T05:57:13.676Z,52.9
2018-09-04T05:58:03.570Z,52.9
2018-09-04T05:58:53.835Z,52.9
2018-09-04T05:59:43.870Z,52.9
2018-09-04T06:00:34.248Z,52.9
2018-09-04T06:01:24.308Z,52.9
2018-09-04T06:02:14.668Z,52.9
2018-09-04T06:03:04.129Z,52.9
2018-09-04T06:03:54.501Z,52.9
2018-09-04T06:04:44.554Z,52.8
2018-09-04T06:05:34.627Z,52.9
2018-09-04T06:06:24.090Z,52.8
2018-09-04T06:07:14.181Z,52.8
2018-09-04T06:08:04.808Z,52.8
2018-09-04T06:08:54.303Z,52.8
2018-09-04T06:09:44.373Z,52.8
2018-09-04T06:10:34.686Z,52.8
2018-09-04T06:11:25.060Z,52.8
2018-09-04T06:12:14.800Z,52.8
2018-09-04T06:13:05.220Z,52.8
2018-09-04T06:13:55.089Z,52.8
2018-09-04T06:14:45.558Z,52.8
2018-09-04T06:15:35.124Z,52.8
2018-09-04T06:16:24.105Z,52.8
2018-09-04T06:17:15.235Z,52.8
2018-09-04T06:18:05.281Z,52.8
2018-09-04T06:18:55.115Z,52.8
2018-09-04T06:19:45.701Z,52.8
2018-09-04T06:20:35.508Z,52.8
2018-09-04T06:21:25.545Z,52.8
2018-09-04T06:22:15.318Z,52.8
2018-09-04T06:23:05.974Z,52.7
2018-09-04T06:23:55.463Z,52.7
2018-09-04T06:24:46.086Z,52.7
2018-09-04T06:25:36.195Z,52.7
2018-09-04T06:26:26.240Z,52.7
2018-09-04T06:27:15.718Z,52.7
2018-09-04T06:28:06.327Z,52.7
2018-09-04T06:28:55.892Z,52.7
2018-09-04T06:29:46.310Z,52.7
2018-09-04T06:30:36.061Z,52.7
2018-09-04T06:31:26.875Z,52.7
2018-09-04T06:32:16.706Z,52.6
2018-09-04T06:33:07.125Z,52.6
2018-09-04T06:33:56.321Z,52.6
2018-09-04T06:34:46.014Z,52.6
2018-09-04T06:35:37.298Z,52.6
2018-09-04T06:36:27.120Z,52.6
2018-09-04T06:37:17.038Z,52.6
2018-09-04T06:38:07.135Z,52.6
2018-09-04T06:38:56.946Z,52.6
2018-09-04T06:39:46.982Z,52.6
2018-09-04T06:40:36.383Z,52.6
2018-09-04T06:41:26.890Z,52.6
2018-09-04T06:42:17.425Z,52.6
2018-09-04T06:43:06.927Z,52.6
2018-09-04T06:43:57.082Z,52.6
2018-09-04T06:44:47.339Z,52.6
2018-09-04T06:45:37.753Z,52.6
2018-09-04T06:46:28.235Z,52.6
2018-09-04T06:47:17.571Z,52.5
2018-09-04T06:48:07.900Z,52.5
2018-09-04T06:48:57.723Z,52.5
2018-09-04T06:49:47.765Z,52.5
2018-09-04T06:50:38.073Z,52.5
2018-09-04T06:51:28.130Z,52.5
2018-09-04T06:52:17.626Z,52.5
2018-09-04T06:53:08.523Z,52.5
2018-09-04T06:53:58.050Z,52.5
2018-09-04T06:54:48.595Z,52.5
2018-09-04T06:55:37.879Z,52.5
2018-09-04T06:56:28.296Z,52.4
2018-09-04T06:57:18.598Z,52.4
2018-09-04T06:58:08.081Z,52.4
2018-09-04T06:58:58.449Z,52.4
2018-09-04T06:59:48.810Z,52.4
2018-09-04T07:00:38.564Z,52.4
2018-09-04T07:01:28.365Z,52.4
2018-09-04T07:02:17.915Z,52.4
2018-09-04T07:03:09.044Z,52.4
2018-09-04T07:03:59.149Z,52.4
2018-09-04T07:04:49.217Z,52.4
2018-09-04T07:13:59.871Z,52.3
2018-09-04T07:14:49.947Z,52.3
2018-09-04T07:15:39.794Z,52.3
2018-09-04T07:16:30.044Z,52.3
2018-09-04T07:17:20.156Z,52.3
2018-09-04T07:18:10.228Z,52.3
2018-09-04T07:19:00.326Z,52.3
2018-09-04T07:19:50.106Z,52.3
2018-09-04T07:20:40.397Z,52.3
2018-09-04T07:21:30.471Z,52.3
2018-09-04T07:22:20.527Z,52.3
2018-09-04T07:23:10.316Z,52.3
2018-09-04T07:24:01.046Z,52.3
2018-09-04T07:24:50.793Z,52.3
2018-09-04T07:25:40.510Z,52.3
2018-09-04T07:26:31.098Z,52.3
2018-09-04T07:27:20.141Z,52.2
2018-09-04T07:28:10.545Z,52.3
2018-09-04T07:29:00.217Z,52.3
2018-09-04T07:29:51.073Z,52.2
2018-09-04T07:30:40.593Z,52.2
2018-09-04T07:31:30.997Z,52.2
2018-09-04T07:32:21.017Z,52.2
2018-09-04T07:33:11.361Z,52.2
2018-09-04T07:34:01.158Z,52.2
2018-09-04T07:34:51.485Z,52.2
2018-09-04T07:35:41.563Z,52.2
2018-09-04T07:36:31.678Z,52.2
2018-09-04T07:37:21.105Z,52.2
2018-09-04T07:38:11.752Z,52.2
2018-09-04T07:39:01.812Z,52.1
2018-09-04T07:39:51.879Z,52.2
2018-09-04T07:40:42.268Z,52.1
2018-09-04T07:41:32.070Z,52.1
2018-09-04T07:42:21.507Z,52.1
2018-09-04T07:43:11.869Z,52.1
2018-09-04T07:44:01.402Z,52.1
2018-09-04T07:44:51.660Z,52.1
2018-09-04T07:45:42.043Z,52.1
2018-09-04T07:46:32.137Z,52.1
2018-09-04T07:47:22.181Z,52.1
2018-09-04T07:48:12.567Z,52.1
2018-09-04T07:49:02.340Z,52.1
2018-09-04T07:49:52.662Z,52.1
2018-09-04T07:50:42.395Z,52.1
2018-09-04T07:51:32.466Z,52.1
2018-09-04T07:52:22.847Z,52
2018-09-04T07:53:12.621Z,52.1
2018-09-04T07:54:02.636Z,52
2018-09-04T07:54:52.756Z,52.1
2018-09-04T07:55:43.089Z,52
2018-09-04T07:56:33.156Z,52
2018-09-04T07:57:22.663Z,52
2018-09-04T07:58:13.281Z,52
2018-09-04T07:59:03.363Z,52
2018-09-04T07:59:52.828Z,52
2018-09-04T08:00:42.898Z,52
2018-09-04T08:01:33.524Z,52
2018-09-04T08:02:23.036Z,52
2018-09-04T08:11:34.032Z,51.9
2018-09-04T08:12:24.631Z,51.9
2018-09-04T08:13:14.450Z,51.9
2018-09-04T08:14:04.514Z,51.9
2018-09-04T08:14:54.040Z,51.9
2018-09-04T08:15:44.645Z,51.9
2018-09-04T08:16:34.730Z,51.9
2018-09-04T08:17:24.425Z,51.9
2018-09-04T08:18:14.520Z,51.9
2018-09-04T08:19:04.910Z,51.9
2018-09-04T08:19:54.394Z,51.8
2018-09-04T08:20:45.571Z,51.8
2018-09-04T08:21:35.110Z,51.8
2018-09-04T08:22:24.884Z,51.8
2018-09-04T08:23:14.922Z,51.8
2018-09-04T09:15:00.091Z,53.8
2018-09-04T09:15:49.952Z,53.9
2018-09-04T09:16:39.976Z,53.9
2018-09-04T09:17:29.740Z,54.1
2018-09-04T09:18:20.369Z,54.1
2018-09-04T09:19:10.184Z,54.3
2018-09-04T09:19:59.989Z,54.3
2018-09-04T09:20:49.984Z,54.4
2018-09-04T09:21:40.091Z,54.5
2018-09-04T09:22:30.386Z,54.6
2018-09-04T09:23:20.764Z,54.7
2018-09-04T09:24:10.246Z,54.8
2018-09-04T09:25:00.846Z,54.9
2018-09-04T09:25:50.903Z,54.9
2018-09-04T09:26:40.966Z,55.1
2018-09-04T09:27:30.253Z,55.1
2018-09-04T09:28:20.571Z,55.3
2018-09-04T09:29:10.591Z,55.3
2018-09-04T09:30:00.998Z,55.4
2018-09-04T09:30:51.050Z,55.5
2018-09-04T09:31:41.136Z,55.6
2018-09-04T09:32:30.640Z,55.7
2018-09-04T09:33:21.254Z,55.8
2018-09-04T09:34:11.551Z,55.9
2018-09-04T09:35:01.281Z,56
2018-09-04T09:35:51.183Z,56.1
2018-09-04T09:36:41.959Z,56.2
2018-09-04T09:37:31.593Z,56.3
2018-09-04T09:38:21.348Z,56.4
2018-09-04T09:39:11.958Z,56.4
2018-09-04T09:40:01.520Z,56.5
2018-09-04T09:40:50.975Z,56.6
2018-09-04T09:41:41.585Z,56.7
2018-09-04T09:42:31.684Z,56.8
2018-09-04T09:43:22.012Z,56.9
2018-09-04T09:44:11.621Z,57
2018-09-04T09:45:02.413Z,57.1
2018-09-04T09:45:52.268Z,57.2
2018-09-04T09:46:41.435Z,57.3
2018-09-04T09:47:32.603Z,57.4
2018-09-04T09:48:22.132Z,57.4
2018-09-04T09:49:12.807Z,57.6
2018-09-04T09:50:01.796Z,57.7
2018-09-04T09:51:42.682Z,57.9
2018-09-04T09:52:33.156Z,57.9
2018-09-04T09:53:26.022Z,58.1
2018-09-04T09:54:12.882Z,58.1
2018-09-04T09:55:02.959Z,58.3
2018-09-04T09:55:53.117Z,58.3
2018-09-04T09:56:43.304Z,58.4
2018-09-04T09:57:32.505Z,58.5
2018-09-04T09:59:13.266Z,58.6
2018-09-04T10:00:04.123Z,58.8
2018-09-04T10:00:54.005Z,58.8
2018-09-04T10:01:43.349Z,58.9
2018-09-04T10:02:33.660Z,59
2018-09-04T10:03:23.617Z,59.1
2018-09-04T10:04:14.485Z,59.2
2018-09-04T10:05:03.717Z,59.3
2018-09-04T10:05:53.463Z,59.4
2018-09-04T10:06:43.871Z,59.4
2018-09-04T10:07:34.942Z,59.6
2018-09-04T10:08:23.979Z,59.6
2018-09-04T10:09:13.542Z,59.7
2018-09-04T10:10:04.676Z,59.8
2018-09-04T10:10:53.601Z,59.9
2018-09-04T10:11:43.924Z,60
2018-09-04T10:12:34.246Z,60.1
2018-09-04T10:13:24.286Z,60.2
2018-09-04T10:14:14.373Z,60.3
2018-09-04T10:15:19.898Z,60.4
2018-09-04T10:15:54.242Z,60.4
2018-09-04T10:16:44.551Z,60.5
2018-09-04T10:17:34.663Z,60.6
2018-09-04T10:18:24.406Z,60.7
2018-09-04T10:19:14.518Z,60.8
2018-09-04T10:20:05.213Z,60.9
2018-09-04T10:20:55.441Z,60.9
2018-09-04T10:21:44.690Z,61.1
2018-09-04T10:22:34.753Z,61.1
2018-09-04T10:23:24.870Z,61.3
2018-09-04T10:24:14.677Z,61.3
2018-09-04T10:25:04.764Z,61.4
2018-09-04T10:25:55.606Z,61.5
2018-09-04T10:26:45.597Z,61.6
2018-09-04T10:27:35.675Z,61.6
2018-09-04T10:28:25.552Z,61.8
2018-09-04T10:29:29.925Z,61.8
2018-09-04T10:30:05.355Z,61.9
2018-09-04T10:30:55.093Z,61.9
2018-09-04T10:31:45.125Z,62.1
2018-09-04T10:32:35.778Z,62.1
2018-09-04T10:33:25.072Z,62.2
2018-09-04T10:34:15.657Z,62.3
2018-09-04T10:35:05.438Z,62.4
2018-09-04T10:35:56.295Z,62.5
2018-09-04T10:36:46.134Z,62.6
2018-09-04T10:37:37.309Z,62.6
2018-09-04T10:38:27.403Z,62.8
2018-09-04T16:15:51.579Z,70.8
2018-09-04T16:16:41.371Z,70.8
2018-09-04T16:17:31.984Z,70.8
2018-09-04T16:18:22.078Z,70.8
2018-09-04T16:19:12.164Z,70.8
2018-09-04T16:20:02.869Z,70.8
2018-09-04T16:20:53.129Z,70.7
2018-09-04T16:21:43.139Z,70.7
2018-09-04T16:22:32.674Z,70.7
2018-09-04T16:23:22.473Z,70.7
2018-09-04T16:24:12.743Z,70.7
2018-09-04T16:25:02.906Z,70.7
2018-09-04T16:25:52.422Z,70.7
2018-09-04T16:26:42.968Z,70.7
2018-09-04T16:27:34.585Z,70.7
2018-09-04T16:28:23.320Z,70.6
2018-09-04T16:29:14.456Z,70.6
2018-09-04T16:30:18.416Z,70.6
2018-09-04T16:30:53.819Z,70.6
2018-09-04T16:31:43.601Z,70.6
2018-09-04T16:32:34.194Z,70.6
2018-09-04T16:33:23.788Z,70.6
2018-09-04T16:34:14.916Z,70.6
2018-09-04T16:35:05.024Z,70.6
2018-09-04T16:35:54.379Z,70.6
2018-09-04T16:36:59.012Z,70.6
2018-09-04T16:37:35.707Z,70.6
2018-09-04T16:38:24.454Z,70.6
2018-09-04T16:39:13.817Z,70.6
2018-09-04T16:40:04.084Z,70.6
2018-09-04T16:40:54.913Z,70.6
2018-09-04T16:41:43.816Z,70.5
2018-09-04T16:42:35.340Z,70.5
2018-09-04T16:43:24.575Z,70.5
2018-09-04T16:44:29.240Z,70.5
2018-09-04T16:45:04.727Z,70.5
2018-09-04T16:45:54.568Z,70.5
2018-09-04T16:46:45.180Z,70.5
2018-09-04T16:47:34.379Z,70.5
2018-09-04T16:48:25.277Z,70.5
2018-09-04T16:49:29.328Z,70.4
2018-09-04T16:50:05.071Z,70.4
2018-09-04T16:50:55.159Z,70.4
2018-09-04T16:51:45.514Z,70.4
2018-09-04T16:52:35.761Z,70.4
2018-09-04T16:53:25.611Z,70.4
2018-09-04T16:54:15.953Z,70.4
2018-09-04T16:55:06.000Z,70.4
2018-09-04T16:55:54.749Z,70.4
2018-09-04T16:56:45.629Z,70.4
2018-09-04T16:57:36.274Z,70.4
2018-09-04T16:58:26.263Z,70.4
2018-09-04T16:59:15.267Z,70.4
2018-09-04T17:00:05.880Z,70.4
2018-09-04T17:00:55.438Z,70.4
2018-09-04T17:01:46.580Z,70.4
2018-09-04T17:02:36.065Z,70.4
2018-09-04T17:03:25.937Z,70.4
2018-09-04T17:04:31.224Z,70.3
2018-09-04T17:05:07.188Z,70.3
2018-09-04T17:05:56.850Z,70.3
2018-09-04T17:06:46.173Z,70.3
2018-09-04T17:07:36.969Z,70.3
2018-09-04T17:08:26.868Z,70.3
2018-09-04T17:09:16.543Z,70.3
2018-09-04T17:10:06.128Z,70.3
2018-09-04T17:10:56.811Z,70.3
2018-09-04T17:11:46.641Z,70.3
2018-09-04T17:12:37.143Z,70.3
2018-09-04T17:13:26.994Z,70.3
2018-09-04T17:14:17.433Z,70.3
2018-09-04T17:15:06.508Z,70.3
2018-09-04T17:16:11.453Z,70.3
2018-09-04T17:16:46.922Z,70.3
2018-09-04T17:17:52.417Z,70.3
2018-09-04T17:18:26.518Z,70.2
2018-09-04T17:19:17.829Z,70.2
2018-09-04T17:20:07.218Z,70.2
2018-09-04T17:20:57.331Z,70.2
2018-09-04T17:21:48.416Z,70.2
2018-09-04T17:22:37.398Z,70.2
2018-09-04T17:23:27.775Z,70.2
2018-09-04T17:24:17.780Z,70.2
2018-09-04T17:25:07.895Z,70.1
2018-09-04T17:25:57.898Z,70.1
2018-09-04T17:27:02.316Z,70.1
2018-09-04T17:27:37.757Z,70.1
2018-09-04T17:28:28.417Z,70.1
2018-09-04T17:29:18.771Z,70.1
2018-09-04T17:30:07.717Z,70.1
2018-09-04T17:30:59.399Z,70.1
2018-09-04T17:32:02.959Z,70.1
2018-09-04T17:32:38.691Z,70.1
2018-09-04T17:33:27.951Z,70.1
2018-09-04T17:34:17.688Z,70.1
2018-09-04T17:35:07.784Z,70.1
2018-09-04T17:35:57.877Z,70.1
2018-09-04T17:36:47.924Z,70.1
2018-09-04T17:37:38.213Z,70.1
2018-09-04T17:38:28.287Z,70
2018-09-04T17:39:18.111Z,70.1
2018-09-04T17:40:22.829Z,70
2018-09-04T17:40:58.263Z,70
2018-09-04T17:41:48.574Z,70
2018-09-04T17:42:38.884Z,70
2018-09-04T17:43:28.403Z,70
2018-09-04T17:44:17.928Z,70
2018-09-04T17:45:08.843Z,69.9
2018-09-04T17:45:58.341Z,69.9
2018-09-04T17:46:48.416Z,69.9
2018-09-04T17:47:39.189Z,69.9
2018-09-04T17:48:29.126Z,69.9
2018-09-04T17:49:19.582Z,69.9
2018-09-04T17:50:08.973Z,69.9
2018-09-04T17:50:59.298Z,69.9
2018-09-04T17:51:49.077Z,69.9
2018-09-04T17:52:39.435Z,69.9
2018-09-04T17:53:28.943Z,69.9
2018-09-04T17:54:19.565Z,69.9
2018-09-04T17:55:09.376Z,69.9
2018-09-04T17:55:59.410Z,69.9
2018-09-04T17:56:49.207Z,69.9
2018-09-04T17:57:39.268Z,69.9
2018-09-04T17:58:29.613Z,69.9
2018-09-04T17:59:19.685Z,69.8
2018-09-04T18:00:09.745Z,69.9
2018-09-04T18:01:00.795Z,69.8
2018-09-04T18:01:50.147Z,69.8
2018-09-04T18:02:40.192Z,69.8
2018-09-04T18:03:30.018Z,69.8
2018-09-04T18:04:20.070Z,69.8
2018-09-04T18:05:09.884Z,69.8
2018-09-04T18:06:00.475Z,69.8
2018-09-04T18:06:49.969Z,69.8
2018-09-04T18:07:40.355Z,69.8
2018-09-04T18:08:30.435Z,69.8
2018-09-04T18:09:20.255Z,69.8
2018-09-04T18:10:10.587Z,69.8
2018-09-04T18:11:00.376Z,69.8
2018-09-04T18:11:50.737Z,69.8
2018-09-04T18:12:41.161Z,69.7
2018-09-04T18:13:31.151Z,69.7
2018-09-04T18:14:20.902Z,69.8
2018-09-04T18:15:10.458Z,69.7
2018-09-04T18:16:00.210Z,69.7
2018-09-04T18:16:51.059Z,69.7
2018-09-04T18:17:41.095Z,69.7
2018-09-04T18:18:31.141Z,69.7
2018-09-04T18:19:21.560Z,69.7
2018-09-04T18:20:11.341Z,69.7
2018-09-04T18:21:01.660Z,69.7
2018-09-04T18:21:51.166Z,69.6
2018-09-04T18:22:41.238Z,69.6
2018-09-04T18:23:31.371Z,69.6
2018-09-04T18:24:21.918Z,69.6
2018-09-04T18:25:11.747Z,69.6
2018-09-04T18:26:01.745Z,69.6
2018-09-04T18:26:51.815Z,69.6
2018-09-04T18:27:41.958Z,69.6
2018-09-04T18:28:32.246Z,69.6
2018-09-04T18:29:22.008Z,69.6
2018-09-04T18:30:11.578Z,69.6